Time;durP1;ratioP1;P1;durP2;ratioP2;P2;SDS_P1;SDS_P2;PMS_P1;PMS_P2;Temp;Humidity;BMP_temperature;BMP_pressure;BME280_temperature;BME280_humidity;BME280_pressure;Samples;Min_cycle;Max_cycle;Signal;HPM_P1;HPM_P2
2023/12/29 00:00:20;;;;;;;4.43;4.10;;;;;;;20.23;50.30;97553.34;5013607;28;20222;-27
2023/12/29 00:02:47;;;;;;;4.03;3.63;;;;;;;20.23;50.63;97555.03;5013974;28;20206;-26
2023/12/29 00:05:13;;;;;;;4.63;4.23;;;;;;;20.22;50.41;97543.94;5013620;28;20285;-26
2023/12/29 00:07:40;;;;;;;4.40;4.00;;;;;;;20.22;50.59;97555.84;5007378;28;20224;-29
2023/12/29 00:10:07;;;;;;;4.27;3.87;;;;;;;20.22;50.48;97546.50;5011304;28;20302;-26
2023/12/29 00:12:34;;;;;;;4.47;4.07;;;;;;;20.21;50.49;97552.41;5013888;28;20207;-29
2023/12/29 00:15:01;;;;;;;3.73;3.43;;;;;;;20.21;50.25;97557.53;5006630;28;20198;-26
2023/12/29 00:17:27;;;;;;;4.53;4.07;;;;;;;20.23;50.49;97558.44;5012012;28;20223;-28
2023/12/29 00:19:54;;;;;;;4.27;3.93;;;;;;;20.23;50.22;97552.47;5012385;28;20208;-26
2023/12/29 00:22:21;;;;;;;4.20;3.80;;;;;;;20.23;50.39;97553.34;5009090;28;20563;-29
2023/12/29 00:24:47;;;;;;;4.00;3.70;;;;;;;20.23;50.26;97562.69;5006060;28;20202;-26
2023/12/29 00:27:14;;;;;;;4.50;4.10;;;;;;;20.23;50.49;97563.56;5025159;23;20253;-25
2023/12/29 00:29:41;;;;;;;4.70;4.30;;;;;;;20.24;50.37;97556.75;5011765;28;20661;-25
2023/12/29 00:32:07;;;;;;;4.40;4.00;;;;;;;20.24;50.48;97561.84;5011896;28;20649;-25
2023/12/29 00:34:34;;;;;;;4.53;4.10;;;;;;;20.23;50.34;97561.00;5012134;28;20201;-25
2023/12/29 00:37:01;;;;;;;4.37;3.97;;;;;;;20.23;50.56;97561.00;5011828;28;20736;-25
2023/12/29 00:39:29;;;;;;;4.33;3.90;;;;;;;20.22;50.54;97550.75;5012511;28;20294;-25
2023/12/29 00:41:57;;;;;;;3.93;3.63;;;;;;;20.21;50.52;97557.53;5012127;28;20284;-25
2023/12/29 00:44:23;;;;;;;4.00;3.60;;;;;;;20.21;50.31;97547.31;5011993;28;20206;-25
2023/12/29 00:46:50;;;;;;;3.80;3.50;;;;;;;20.21;50.54;97554.97;5014938;28;20275;-25
2023/12/29 00:49:17;;;;;;;4.10;3.70;;;;;;;20.22;50.35;97558.41;5016240;28;20206;-25
2023/12/29 00:51:43;;;;;;;3.93;3.63;;;;;;;20.21;49.98;97554.09;5011443;28;20552;-25
2023/12/29 00:54:10;;;;;;;4.17;3.77;;;;;;;20.23;50.56;97557.56;5010524;28;20289;-25
2023/12/29 00:56:37;;;;;;;3.90;3.60;;;;;;;20.23;50.54;97558.44;5011672;28;20234;-25
2023/12/29 00:59:04;;;;;;;4.20;3.90;;;;;;;20.24;50.37;97561.84;5011995;28;20209;-25
2023/12/29 01:01:34;;;;;;;4.40;4.00;;;;;;;20.23;50.30;97557.56;5011836;28;20642;-26
2023/12/29 01:04:02;;;;;;;4.13;3.70;;;;;;;20.23;50.37;97549.91;5012065;28;20237;-25
2023/12/29 01:06:29;;;;;;;4.10;3.70;;;;;;;20.23;50.11;97555.03;5011215;28;20644;-25
2023/12/29 01:08:55;;;;;;;4.00;3.60;;;;;;;20.21;50.24;97552.41;5010894;28;20203;-25
2023/12/29 01:11:22;;;;;;;4.00;3.63;;;;;;;20.23;50.74;97552.47;5011690;28;20621;-26
2023/12/29 01:13:48;;;;;;;3.50;3.20;;;;;;;20.21;50.39;97549.00;5011499;28;20672;-25
2023/12/29 01:16:15;;;;;;;3.60;3.30;;;;;;;20.21;50.32;97549.88;5011469;28;20230;-25
2023/12/29 01:18:42;;;;;;;3.77;3.40;;;;;;;20.20;50.37;97552.38;5010381;28;20681;-25
2023/12/29 01:21:08;;;;;;;4.10;3.80;;;;;;;20.20;50.43;97560.03;5010351;28;21308;-25
2023/12/29 01:23:35;;;;;;;4.10;3.70;;;;;;;20.18;50.59;97559.97;5010007;28;20211;-25
2023/12/29 01:26:02;;;;;;;3.80;3.50;;;;;;;20.19;50.65;97563.41;5011381;28;20222;-25
2023/12/29 01:28:29;;;;;;;4.07;3.77;;;;;;;20.18;50.38;97556.53;5011425;28;20217;-25
2023/12/29 01:30:55;;;;;;;4.07;3.60;;;;;;;20.17;50.71;97558.25;5011069;28;20257;-25
2023/12/29 01:33:22;;;;;;;4.33;3.23;;;;;;;20.18;50.62;97559.09;5011337;28;20685;-25
2023/12/29 01:35:49;;;;;;;3.70;3.40;;;;;;;20.18;50.76;97559.09;5007520;28;20200;-25
2023/12/29 01:38:15;;;;;;;3.63;3.33;;;;;;;20.17;50.37;97560.78;5011444;28;20225;-25
2023/12/29 01:40:43;;;;;;;4.00;3.60;;;;;;;20.17;50.58;97555.69;5009922;28;20772;-25
2023/12/29 01:43:10;;;;;;;3.63;3.33;;;;;;;20.14;50.49;97541.94;5011092;28;20578;-27
2023/12/29 01:45:37;;;;;;;4.00;3.70;;;;;;;20.19;50.44;97553.19;5009064;28;20206;-25
2023/12/29 01:48:18;;;;;;;3.90;3.60;;;;;;;20.20;50.30;97548.13;5013147;28;20479;-25
2023/12/29 01:50:45;;;;;;;3.57;3.27;;;;;;;20.20;50.42;97545.59;5009844;28;20225;-25
2023/12/29 01:53:11;;;;;;;3.97;3.57;;;;;;;20.21;50.35;97554.09;5009421;28;20253;-25
2023/12/29 01:55:38;;;;;;;3.70;3.40;;;;;;;20.19;50.69;97548.94;5011308;28;20243;-25
2023/12/29 01:58:04;;;;;;;3.80;3.50;;;;;;;20.20;50.61;97549.81;5008075;28;20272;-25
2023/12/29 02:00:32;;;;;;;4.37;3.97;;;;;;;20.20;50.46;97557.47;5006223;28;20229;-25
2023/12/29 02:02:59;;;;;;;3.93;3.53;;;;;;;20.14;50.67;97542.81;5009731;28;20610;-25
2023/12/29 02:05:25;;;;;;;3.40;3.10;;;;;;;20.18;50.61;97557.41;5006926;28;20249;-25
2023/12/29 02:07:53;;;;;;;3.77;3.47;;;;;;;20.18;50.51;97553.97;4993122;28;20218;-25
2023/12/29 02:10:19;;;;;;;3.80;3.50;;;;;;;20.18;50.65;97546.31;5011171;28;20202;-25
2023/12/29 02:12:48;;;;;;;3.67;3.37;;;;;;;20.17;50.72;97536.94;5009807;28;20556;-25
2023/12/29 02:15:15;;;;;;;3.83;3.53;;;;;;;20.17;50.56;97536.94;5011562;28;20222;-25
2023/12/29 02:17:45;;;;;;;3.50;3.20;;;;;;;20.16;50.71;97543.72;5009994;28;20226;-25
2023/12/29 02:20:11;;;;;;;4.10;3.70;;;;;;;20.16;50.52;97532.66;5010077;28;20249;-25
2023/12/29 02:22:38;;;;;;;3.17;2.97;;;;;;;20.16;50.55;97527.56;5010779;28;20226;-25
2023/12/29 02:25:05;;;;;;;3.60;3.30;;;;;;;20.16;50.55;97525.00;5011250;28;20195;-25
2023/12/29 02:27:54;;;;;;;3.77;3.47;;;;;;;20.16;50.52;97515.66;5010689;28;20241;-25
2023/12/29 02:30:37;;;;;;;3.73;3.43;;;;;;;20.18;50.39;97515.72;4992130;28;20202;-25
2023/12/29 02:33:10;;;;;;;3.27;3.07;;;;;;;20.19;50.67;97517.47;5003829;28;20208;-25
2023/12/29 02:35:39;;;;;;;3.83;3.53;;;;;;;20.18;50.60;97516.59;5014373;28;20233;-25
2023/12/29 02:38:06;;;;;;;3.60;3.30;;;;;;;20.19;50.71;97520.00;5012486;28;20226;-25
2023/12/29 02:40:32;;;;;;;3.57;3.27;;;;;;;20.18;50.46;97515.72;5013168;28;20242;-25
2023/12/29 02:42:59;;;;;;;3.73;3.33;;;;;;;20.18;50.54;97511.50;5012932;28;20260;-25
2023/12/29 02:45:26;;;;;;;3.40;3.10;;;;;;;20.18;50.64;97505.50;5014386;28;20245;-25
2023/12/29 02:47:52;;;;;;;3.33;3.10;;;;;;;20.17;50.57;97509.75;5013517;28;20316;-25
2023/12/29 02:50:19;;;;;;;3.50;3.20;;;;;;;20.17;50.66;97501.22;4997179;28;20202;-28
2023/12/29 02:52:45;;;;;;;3.40;3.20;;;;;;;20.18;50.34;97485.09;5014170;28;20277;-25
2023/12/29 02:55:12;;;;;;;3.40;3.10;;;;;;;20.17;50.53;97488.47;5014467;28;20198;-25
2023/12/29 02:57:39;;;;;;;3.40;3.10;;;;;;;20.16;50.60;97487.59;5014244;28;20226;-25
2023/12/29 03:00:06;;;;;;;3.80;3.50;;;;;;;20.15;50.32;97496.06;5014033;28;20285;-25
2023/12/29 03:02:33;;;;;;;3.60;3.30;;;;;;;20.15;50.50;97490.97;5014301;28;20222;-25
2023/12/29 03:04:59;;;;;;;3.60;3.30;;;;;;;20.15;50.55;97482.44;5014328;28;20286;-25
2023/12/29 03:07:26;;;;;;;3.50;3.20;;;;;;;20.15;50.65;97480.75;5014255;28;20640;-25
2023/12/29 03:09:52;;;;;;;3.40;3.10;;;;;;;20.16;50.52;97476.53;5013586;28;20244;-25
2023/12/29 03:12:19;;;;;;;3.60;3.30;;;;;;;20.16;50.69;97479.94;5014190;28;20203;-25
2023/12/29 03:14:47;;;;;;;3.70;3.40;;;;;;;20.17;50.46;97480.81;5013913;28;20210;-25
2023/12/29 03:17:13;;;;;;;3.60;3.30;;;;;;;20.18;50.64;97474.88;5014112;28;20778;-25
2023/12/29 03:19:40;;;;;;;3.43;3.13;;;;;;;20.18;50.43;97473.22;5013419;28;20675;-25
2023/12/29 03:22:07;;;;;;;3.00;2.80;;;;;;;20.18;50.58;97465.56;5013853;28;20226;-25
2023/12/29 03:24:34;;;;;;;3.27;3.07;;;;;;;20.18;50.42;97457.91;5013813;28;20581;-28
2023/12/29 03:27:01;;;;;;;3.13;2.93;;;;;;;20.18;50.50;97467.22;5013093;28;20305;-25
2023/12/29 03:29:27;;;;;;;3.27;3.03;;;;;;;20.17;50.61;97462.94;5013794;28;20247;-25
2023/12/29 03:31:54;;;;;;;3.37;3.07;;;;;;;20.18;50.58;97485.09;5013678;28;20194;-25
2023/12/29 03:34:21;;;;;;;3.30;3.00;;;;;;;20.11;50.43;97481.44;5013532;28;20577;-25
2023/12/29 03:36:47;;;;;;;3.00;2.80;;;;;;;20.16;50.73;97489.28;5013497;28;20288;-25
2023/12/29 03:39:14;;;;;;;3.13;2.93;;;;;;;20.16;50.52;97486.75;5013631;28;20629;-25
2023/12/29 03:41:41;;;;;;;3.40;3.10;;;;;;;20.15;50.70;97490.97;5012996;28;20233;-25
2023/12/29 03:44:08;;;;;;;3.07;2.77;;;;;;;20.14;50.78;97490.91;5012615;28;20211;-25
2023/12/29 03:46:34;;;;;;;3.33;3.07;;;;;;;20.14;50.60;97490.91;5014528;28;20222;-25
2023/12/29 03:49:01;;;;;;;3.70;3.40;;;;;;;20.13;50.55;97478.97;5013340;28;20198;-25
2023/12/29 03:51:27;;;;;;;3.20;2.90;;;;;;;20.13;50.63;97471.34;5013457;28;20203;-25
2023/12/29 03:53:54;;;;;;;3.47;3.17;;;;;;;20.14;50.29;97473.94;5013033;28;20630;-25
2023/12/29 03:56:20;;;;;;;3.00;2.70;;;;;;;20.15;50.57;97472.22;5013017;28;20254;-25
2023/12/29 03:58:47;;;;;;;3.23;2.90;;;;;;;20.16;50.66;97474.84;5013142;28;20206;-25
2023/12/29 04:01:14;;;;;;;3.27;3.03;;;;;;;20.16;50.65;97464.63;5013274;28;20285;-25
2023/12/29 04:03:41;;;;;;;3.33;3.07;;;;;;;20.17;50.47;97452.75;5013196;28;20240;-25
2023/12/29 04:06:08;;;;;;;3.00;2.80;;;;;;;20.18;50.54;97454.47;5012830;28;20203;-25
2023/12/29 04:08:35;;;;;;;3.40;3.10;;;;;;;20.17;50.45;97448.53;5012979;28;20661;-25
2023/12/29 04:11:02;;;;;;;3.20;3.00;;;;;;;20.17;50.58;97443.41;5012680;28;20628;-32
2023/12/29 04:13:29;;;;;;;3.40;3.10;;;;;;;20.17;50.58;97447.66;5013057;28;20199;-25
2023/12/29 04:15:55;;;;;;;3.00;2.80;;;;;;;20.16;50.61;97443.38;5012790;28;20202;-25
2023/12/29 04:18:23;;;;;;;3.27;2.97;;;;;;;20.16;50.60;97444.22;5013039;28;20213;-25
2023/12/29 04:20:50;;;;;;;3.10;2.90;;;;;;;20.16;50.73;97439.13;5012700;28;20261;-27
2023/12/29 04:23:16;;;;;;;3.03;2.80;;;;;;;20.15;50.47;97428.84;5012741;28;20222;-25
2023/12/29 04:25:43;;;;;;;3.10;2.80;;;;;;;20.15;50.54;97429.72;5012378;28;20688;-25
2023/12/29 04:28:09;;;;;;;2.93;2.73;;;;;;;20.15;50.57;97418.66;5012440;28;20237;-25
2023/12/29 04:30:36;;;;;;;3.13;2.83;;;;;;;20.14;50.67;97420.34;5008303;28;20202;-25
2023/12/29 04:33:03;;;;;;;3.00;2.80;;;;;;;20.15;50.53;97419.53;5012338;28;20205;-25
2023/12/29 04:35:30;;;;;;;3.27;2.97;;;;;;;20.15;50.64;97423.75;5012263;28;20206;-26
2023/12/29 04:37:56;;;;;;;2.93;2.73;;;;;;;20.16;50.53;97421.25;5012228;28;20735;-25
2023/12/29 04:40:23;;;;;;;3.17;2.87;;;;;;;20.17;50.49;97424.69;5012259;28;20241;-25
2023/12/29 04:42:50;;;;;;;2.87;2.67;;;;;;;20.18;50.45;97434.06;5012566;28;20305;-25
2023/12/29 04:45:16;;;;;;;3.10;2.90;;;;;;;20.18;50.41;97434.94;5012268;28;20195;-25
2023/12/29 04:47:43;;;;;;;2.90;2.70;;;;;;;20.18;50.67;97427.28;5013957;28;20218;-25
2023/12/29 04:50:09;;;;;;;3.33;3.07;;;;;;;20.18;50.45;97428.97;5012282;28;20289;-25
2023/12/29 04:52:36;;;;;;;3.00;2.80;;;;;;;20.19;50.54;97433.25;5008822;28;20202;-25
2023/12/29 04:55:03;;;;;;;2.90;2.70;;;;;;;20.18;50.63;97445.16;5012031;28;20221;-25
2023/12/29 04:57:30;;;;;;;2.83;2.63;;;;;;;20.18;50.70;97446.81;5011952;28;20236;-25
2023/12/29 04:59:56;;;;;;;3.27;3.07;;;;;;;20.17;50.61;97450.19;5012008;28;20245;-27
2023/12/29 05:02:23;;;;;;;3.30;3.00;;;;;;;20.16;50.64;97446.75;5011707;28;20371;-25
2023/12/29 05:04:49;;;;;;;2.80;2.60;;;;;;;20.16;50.80;97453.56;5011975;28;20233;-25
2023/12/29 05:07:16;;;;;;;2.77;2.57;;;;;;;20.16;50.57;97466.34;5006970;28;20253;-30
2023/12/29 05:09:43;;;;;;;2.80;2.60;;;;;;;20.15;50.63;97459.47;5012556;28;20285;-25
2023/12/29 05:12:10;;;;;;;2.80;2.60;;;;;;;20.15;50.57;97455.25;5011884;28;20558;-25
2023/12/29 05:14:37;;;;;;;3.27;3.00;;;;;;;20.15;50.07;97456.91;5007687;28;20272;-25
2023/12/29 05:17:03;;;;;;;3.10;2.80;;;;;;;20.15;50.57;97464.56;5011737;28;20218;-25
2023/12/29 05:19:30;;;;;;;3.03;2.83;;;;;;;20.16;50.69;97461.22;5011599;28;20299;-25
2023/12/29 05:21:56;;;;;;;3.30;3.03;;;;;;;20.17;50.45;97452.75;5011529;28;20254;-25
2023/12/29 05:24:23;;;;;;;2.93;2.73;;;;;;;20.17;50.62;97456.19;5011729;28;20212;-25
2023/12/29 05:26:50;;;;;;;2.53;2.33;;;;;;;20.18;50.46;97454.47;5011284;28;20226;-25
2023/12/29 05:29:16;;;;;;;2.90;2.70;;;;;;;20.17;50.78;97451.06;5011899;28;20241;-25
2023/12/29 05:31:43;;;;;;;2.80;2.60;;;;;;;20.18;50.54;97455.34;5011325;28;20233;-25
2023/12/29 05:34:09;;;;;;;3.10;2.90;;;;;;;20.18;50.50;97441.72;5011381;28;20248;-25
2023/12/29 05:36:36;;;;;;;3.00;2.80;;;;;;;20.17;49.95;97448.53;5011604;28;20222;-25
2023/12/29 05:39:03;;;;;;;2.80;2.60;;;;;;;20.17;50.33;97451.06;5007361;28;20237;-25
2023/12/29 05:41:30;;;;;;;2.70;2.50;;;;;;;20.17;50.53;97450.19;5010357;28;20552;-28
2023/12/29 05:43:57;;;;;;;2.83;2.63;;;;;;;20.16;50.53;97441.66;5011293;28;20297;-26
2023/12/29 05:46:24;;;;;;;3.33;3.03;;;;;;;20.15;50.68;97442.50;5010199;28;20619;-25
2023/12/29 05:48:52;;;;;;;2.70;2.50;;;;;;;20.16;50.74;97448.47;5011044;28;20297;-25
2023/12/29 05:51:19;;;;;;;2.93;2.73;;;;;;;20.15;50.52;97452.69;5011430;28;20202;-25
2023/12/29 05:53:45;;;;;;;2.87;2.67;;;;;;;20.15;50.64;97459.47;5011400;28;20628;-25
2023/12/29 05:56:12;;;;;;;2.90;2.70;;;;;;;20.16;50.62;97468.88;5011202;28;20206;-25
2023/12/29 05:58:42;;;;;;;2.90;2.70;;;;;;;20.17;50.80;97468.06;5011353;28;20297;-25
2023/12/29 06:01:09;;;;;;;2.97;2.77;;;;;;;20.17;50.69;97462.94;5003949;28;20195;-25
2023/12/29 06:03:36;;;;;;;2.90;2.70;;;;;;;20.18;50.61;97463.00;5011367;28;20226;-25
2023/12/29 06:06:03;;;;;;;3.00;2.70;;;;;;;20.18;50.56;97459.56;5009715;28;20225;-25
2023/12/29 06:08:29;;;;;;;2.57;2.37;;;;;;;20.19;50.65;97468.97;5012427;28;20232;-25
2023/12/29 06:10:56;;;;;;;2.90;2.70;;;;;;;20.19;50.66;97457.06;5012096;28;20280;-25
2023/12/29 06:13:23;;;;;;;2.80;2.60;;;;;;;20.17;50.36;97453.63;5014788;28;20301;-25
2023/12/29 06:15:49;;;;;;;2.80;2.60;;;;;;;20.19;50.54;97458.78;5014876;28;20202;-26
2023/12/29 06:18:16;;;;;;;2.77;2.57;;;;;;;20.19;50.36;97454.53;5007180;28;20306;-25
2023/12/29 06:20:43;;;;;;;2.70;2.50;;;;;;;20.19;50.51;97451.97;5015363;28;20228;-25
2023/12/29 06:23:10;;;;;;;2.80;2.60;;;;;;;20.18;50.71;97454.47;5014693;28;20218;-25
2023/12/29 06:25:39;;;;;;;2.80;2.60;;;;;;;20.18;50.70;97465.56;5014888;28;20206;-25
2023/12/29 06:28:06;;;;;;;2.70;2.50;;;;;;;20.18;50.54;97464.69;5010077;22;20309;-28
2023/12/29 06:30:33;;;;;;;2.80;2.60;;;;;;;20.18;50.42;97459.56;4996155;28;20209;-26
2023/12/29 06:33:00;;;;;;;2.63;2.43;;;;;;;20.19;50.71;97458.78;4995797;28;20302;-26
2023/12/29 06:35:27;;;;;;;2.33;2.13;;;;;;;20.19;50.77;97453.69;4984189;28;20203;-26
2023/12/29 06:37:54;;;;;;;2.73;2.53;;;;;;;20.21;50.45;97454.56;4991374;28;20226;-30
2023/12/29 06:40:20;;;;;;;2.80;2.60;;;;;;;20.21;50.62;97459.69;4993644;28;20207;-28
2023/12/29 06:42:47;;;;;;;2.50;2.30;;;;;;;20.12;50.53;97436.38;4992932;28;20223;-26
2023/12/29 06:45:14;;;;;;;2.83;2.60;;;;;;;20.21;50.46;97452.91;4995119;28;20284;-26
2023/12/29 06:47:40;;;;;;;2.70;2.50;;;;;;;20.22;50.47;97464.00;4991098;28;20262;-28
2023/12/29 06:50:12;;;;;;;2.60;2.40;;;;;;;20.22;50.37;97454.63;4986984;28;20206;-26
2023/12/29 06:52:39;;;;;;;2.60;2.40;;;;;;;20.23;50.40;97452.94;4995521;28;20681;-28
2023/12/29 06:55:07;;;;;;;2.57;2.37;;;;;;;20.24;50.36;97452.13;4989893;28;20208;-26
2023/12/29 06:57:33;;;;;;;2.57;2.37;;;;;;;20.23;50.73;97453.84;4995471;28;20230;-28
2023/12/29 07:00:00;;;;;;;2.90;2.70;;;;;;;20.23;50.76;97458.06;4994643;28;20199;-26
2023/12/29 07:02:27;;;;;;;2.73;2.53;;;;;;;20.23;50.54;97447.84;4994949;28;20849;-26
2023/12/29 07:04:53;;;;;;;2.70;2.50;;;;;;;20.22;50.44;97454.63;4995261;28;20199;-27
2023/12/29 07:07:20;;;;;;;2.70;2.50;;;;;;;20.23;50.05;97445.28;4995275;28;20233;-26
2023/12/29 07:09:46;;;;;;;2.60;2.40;;;;;;;20.21;50.68;97437.59;4991168;28;20210;-26
2023/12/29 07:12:13;;;;;;;2.90;2.70;;;;;;;20.14;50.15;97432.22;4992400;28;20201;-29
2023/12/29 07:14:41;;;;;;;2.70;2.50;;;;;;;20.21;50.15;97445.25;4994956;28;20211;-27
2023/12/29 07:17:07;;;;;;;2.77;2.57;;;;;;;20.21;50.50;97447.78;4995183;28;20237;-29
2023/12/29 07:19:36;;;;;;;2.70;2.50;;;;;;;20.21;50.58;97455.44;4989205;28;20231;-26
2023/12/29 07:22:07;;;;;;;2.80;2.60;;;;;;;20.21;50.62;97462.22;4992541;28;20661;-28
2023/12/29 07:24:35;;;;;;;2.60;2.40;;;;;;;20.19;50.61;97464.72;4994682;28;20757;-26
2023/12/29 07:27:02;;;;;;;2.77;2.57;;;;;;;20.20;50.70;97465.59;4993028;28;20241;-26
2023/12/29 07:29:29;;;;;;;2.50;2.30;;;;;;;20.20;50.55;97470.72;4982292;28;20588;-26
2023/12/29 07:31:55;;;;;;;2.90;2.70;;;;;;;20.21;50.58;97483.53;4992145;28;20294;-26
2023/12/29 07:34:22;;;;;;;2.40;2.20;;;;;;;20.20;50.88;97480.91;4993825;28;20207;-28
2023/12/29 07:36:49;;;;;;;2.60;2.40;;;;;;;20.19;51.06;97480.03;4995275;28;20287;-28
2023/12/29 07:39:16;;;;;;;2.47;2.27;;;;;;;20.18;50.73;97480.88;4990500;28;20658;-26
2023/12/29 07:41:42;;;;;;;2.60;2.37;;;;;;;20.19;50.54;97489.41;4990939;28;20262;-26
2023/12/29 07:44:12;;;;;;;2.60;2.40;;;;;;;20.17;50.63;97481.69;4986799;28;20222;-28
2023/12/29 07:46:40;;;;;;;2.40;2.20;;;;;;;20.18;50.54;97485.09;4988366;28;20203;-28
2023/12/29 07:49:06;;;;;;;2.50;2.30;;;;;;;20.18;50.43;97491.06;4986536;28;20467;-26
2023/12/29 07:51:33;;;;;;;2.70;2.50;;;;;;;20.17;50.20;97501.22;4994247;28;20203;-26
2023/12/29 07:54:00;;;;;;;2.87;2.67;;;;;;;20.17;50.27;97494.44;4992079;28;20285;-26
2023/12/29 07:56:27;;;;;;;3.10;2.80;;;;;;;20.17;50.40;97486.78;4984909;28;20235;-29
2023/12/29 07:58:54;;;;;;;2.83;2.63;;;;;;;20.17;50.20;97489.34;4992618;28;20273;-27
2023/12/29 08:01:20;;;;;;;3.10;2.80;;;;;;;20.17;50.11;97480.81;4987115;28;20242;-27
2023/12/29 08:03:47;;;;;;;2.90;2.70;;;;;;;20.17;49.93;97491.91;4989134;28;20250;-26
2023/12/29 08:06:14;;;;;;;2.93;2.70;;;;;;;20.17;49.88;97484.25;4991280;28;20265;-33
2023/12/29 08:08:41;;;;;;;2.83;2.63;;;;;;;20.18;49.91;97485.09;4982292;28;20230;-26
2023/12/29 08:11:15;;;;;;;3.30;3.00;;;;;;;20.18;49.84;97487.63;4987751;28;20207;-26
2023/12/29 08:13:43;;;;;;;2.90;2.60;;;;;;;20.18;49.60;97485.97;4988365;28;20231;-26
2023/12/29 08:16:10;;;;;;;3.10;2.90;;;;;;;20.19;49.63;97476.63;4980207;28;20672;-26
2023/12/29 08:18:36;;;;;;;3.33;3.03;;;;;;;20.09;49.43;97452.47;4989666;28;20596;-26
2023/12/29 08:21:03;;;;;;;3.23;3.00;;;;;;;20.16;49.86;97462.06;4993366;28;20207;-40
2023/12/29 08:23:30;;;;;;;3.17;2.87;;;;;;;19.95;49.92;97410.31;4993160;28;20253;-26
2023/12/29 08:25:58;;;;;;;3.20;2.93;;;;;;;20.21;49.55;97449.47;4989617;28;20633;-32
2023/12/29 08:28:24;;;;;;;3.07;2.87;;;;;;;20.14;49.72;97442.44;4993021;28;20270;-29
2023/12/29 08:30:52;;;;;;;2.70;2.50;;;;;;;20.19;49.82;97454.53;4991654;28;20253;-26
2023/12/29 08:33:19;;;;;;;2.80;2.60;;;;;;;20.20;49.76;97469.03;4990295;28;20202;-30
2023/12/29 08:35:45;;;;;;;2.93;2.73;;;;;;;20.22;49.84;97461.44;4988982;28;20203;-27
2023/12/29 08:38:12;;;;;;;3.10;2.90;;;;;;;20.21;49.84;97462.22;4976024;28;20227;-30
2023/12/29 08:40:40;;;;;;;3.00;2.80;;;;;;;20.19;49.64;97469.84;4980401;28;20478;-27
2023/12/29 08:43:06;;;;;;;3.10;2.90;;;;;;;20.22;49.95;97472.47;4977167;28;20780;-28
2023/12/29 08:45:33;;;;;;;3.20;2.70;;;;;;;20.22;49.77;97476.75;4978744;28;20208;-31
2023/12/29 08:48:00;;;;;;;2.77;2.57;;;;;;;20.22;49.71;97472.47;4980219;28;20233;-29
2023/12/29 08:50:27;;;;;;;3.23;2.93;;;;;;;20.22;49.80;97472.47;4978458;28;20206;-27
2023/12/29 08:52:53;;;;;;;3.10;2.80;;;;;;;20.23;49.72;97486.13;4978725;28;20647;-30
2023/12/29 08:55:20;;;;;;;2.90;2.70;;;;;;;20.22;49.66;97486.94;4977150;28;20324;-40
2023/12/29 08:57:47;;;;;;;2.73;2.53;;;;;;;20.22;49.99;97481.84;4978476;28;20231;-27
2023/12/29 09:00:14;;;;;;;2.70;2.50;;;;;;;20.22;49.77;97482.69;4977202;28;20203;-26
2023/12/29 09:02:40;;;;;;;4.03;3.10;;;;;;;20.21;49.80;97488.63;4976087;28;20698;-27
2023/12/29 09:05:07;;;;;;;2.80;2.60;;;;;;;20.22;49.88;97479.28;4978433;28;20670;-40
2023/12/29 09:07:34;;;;;;;2.80;2.40;;;;;;;20.22;49.94;97485.25;4979246;28;20234;-28
2023/12/29 09:10:02;;;;;;;3.00;2.70;;;;;;;20.23;49.78;97491.22;4975665;28;20203;-26
2023/12/29 09:12:29;;;;;;;4.13;2.87;;;;;;;20.23;49.78;97497.22;4975171;28;20215;-28
2023/12/29 09:14:56;;;;;;;2.93;2.73;;;;;;;20.25;49.81;97497.25;4979460;28;20293;-28
2023/12/29 09:17:22;;;;;;;2.80;2.60;;;;;;;20.15;49.67;97480.75;4976375;28;20621;-33
2023/12/29 09:19:49;;;;;;;2.80;2.50;;;;;;;20.26;50.03;97496.44;4980192;28;20203;-37
2023/12/29 09:22:29;;;;;;;2.60;2.40;;;;;;;20.24;49.91;97500.59;4977672;28;20293;-30
2023/12/29 09:24:55;;;;;;;2.70;2.50;;;;;;;20.23;50.17;97504.88;4979570;28;20628;-27
2023/12/29 09:27:22;;;;;;;2.50;2.30;;;;;;;20.24;50.03;97503.16;4978437;28;20265;-28
2023/12/29 09:29:49;;;;;;;5.27;2.60;;;;;;;20.22;49.45;97500.56;4976687;28;20247;-39
2023/12/29 09:32:16;;;;;;;3.00;2.73;;;;;;;20.21;49.73;97498.84;4978190;28;20411;-28
2023/12/29 09:34:42;;;;;;;3.00;2.70;;;;;;;20.21;49.90;97503.06;4978519;28;20210;-40
2023/12/29 09:37:09;;;;;;;2.83;2.63;;;;;;;20.20;49.88;97506.44;4977581;28;20757;-31
2023/12/29 09:39:36;;;;;;;2.70;2.50;;;;;;;20.21;49.91;97503.94;4977483;28;20207;-28
2023/12/29 09:42:03;;;;;;;2.80;2.60;;;;;;;20.20;49.98;97494.56;4976936;28;20290;-26
2023/12/29 09:44:30;;;;;;;2.80;2.60;;;;;;;20.20;49.96;97491.13;4976205;28;20282;-27
2023/12/29 09:47:01;;;;;;;2.50;2.30;;;;;;;20.20;50.08;97497.09;4975707;28;20336;-37
2023/12/29 09:49:37;;;;;;;2.70;2.50;;;;;;;20.20;49.98;97499.66;4976365;28;20285;-27
2023/12/29 09:52:04;;;;;;;2.77;2.57;;;;;;;20.19;50.15;97487.69;4976999;28;20697;-38
2023/12/29 09:54:30;;;;;;;2.70;2.50;;;;;;;20.20;49.82;97494.56;4978917;28;20554;-27
2023/12/29 09:56:57;;;;;;;3.30;2.50;;;;;;;20.20;50.17;97489.44;4976054;28;20263;-27
2023/12/29 09:59:25;;;;;;;2.80;2.60;;;;;;;20.21;49.79;97483.53;4960447;28;20305;-33
2023/12/29 10:01:51;;;;;;;2.70;2.47;;;;;;;20.22;49.98;97480.13;4962413;28;20623;-26
2023/12/29 10:04:18;;;;;;;2.10;2.00;;;;;;;20.23;49.80;97486.13;4955716;28;20233;-30
2023/12/29 10:06:47;;;;;;;2.67;2.47;;;;;;;20.24;50.04;97490.41;4978532;28;20720;-26
2023/12/29 10:09:16;;;;;;;2.70;2.50;;;;;;;20.23;50.06;97481.91;4960698;28;20218;-34
2023/12/29 10:11:42;;;;;;;2.63;2.43;;;;;;;20.23;50.23;97478.47;4961676;28;20295;-32
2023/12/29 10:14:23;;;;;;;2.63;2.43;;;;;;;20.23;50.14;97473.38;4978755;28;20625;-30
2023/12/29 10:17:05;;;;;;;2.60;2.40;;;;;;;20.23;50.25;97475.91;4977433;28;20211;-29
2023/12/29 10:19:42;;;;;;;2.77;2.33;;;;;;;20.21;49.99;97480.97;4979070;28;20218;-34
2023/12/29 10:22:21;;;;;;;2.17;2.03;;;;;;;20.19;49.99;97471.53;4992474;28;20214;-29
2023/12/29 10:24:48;;;;;;;2.60;2.40;;;;;;;20.22;50.01;97464.81;4978759;28;20223;-29
2023/12/29 10:27:14;;;;;;;2.60;2.40;;;;;;;20.23;50.23;97465.72;4974068;28;20241;-35
2023/12/29 10:29:41;;;;;;;2.70;2.50;;;;;;;20.22;50.16;97462.28;4979177;28;20749;-27
2023/12/29 10:32:09;;;;;;;2.87;2.30;;;;;;;20.24;49.94;97455.56;4979003;28;20207;-27
2023/12/29 10:34:36;;;;;;;2.67;2.33;;;;;;;20.25;50.17;97457.28;4979122;28;20640;-27
2023/12/29 10:37:06;;;;;;;2.67;2.40;;;;;;;20.25;50.29;97454.72;4978125;28;20318;-27
2023/12/29 10:39:33;;;;;;;2.37;2.20;;;;;;;20.26;50.26;97453.06;4978860;28;20203;-26
2023/12/29 10:42:07;;;;;;;2.57;2.37;;;;;;;20.27;50.19;97453.09;4986844;28;20203;-31
2023/12/29 10:44:35;;;;;;;2.30;2.00;;;;;;;20.27;50.34;97450.56;4990217;28;20257;-27
2023/12/29 10:47:11;;;;;;;2.57;2.37;;;;;;;20.30;50.07;97450.66;4981575;28;20222;-26
2023/12/29 10:49:38;;;;;;;3.93;2.43;;;;;;;20.32;49.92;97450.69;4983374;28;20535;-26
2023/12/29 10:52:14;;;;;;;2.53;2.07;;;;;;;20.30;50.10;97448.09;4987003;28;20589;-30
2023/12/29 10:54:44;;;;;;;2.80;2.20;;;;;;;20.32;49.99;97448.16;4992181;28;20191;-29
2023/12/29 10:57:12;;;;;;;2.57;2.37;;;;;;;20.31;50.12;97442.16;4991482;28;20270;-26
2023/12/29 10:59:39;;;;;;;2.50;2.30;;;;;;;20.30;50.17;97437.00;4992338;28;21262;-29
2023/12/29 11:02:08;;;;;;;3.33;2.53;;;;;;;20.29;50.11;97436.16;4990360;28;20207;-28
2023/12/29 11:04:35;;;;;;;2.30;2.10;;;;;;;20.30;50.22;97434.47;4990565;28;20297;-31
2023/12/29 11:07:01;;;;;;;2.40;2.20;;;;;;;20.28;50.10;97429.31;4992191;28;20760;-28
2023/12/29 11:09:29;;;;;;;2.20;2.10;;;;;;;20.28;50.15;97426.75;4994269;28;20207;-26
2023/12/29 11:11:57;;;;;;;2.40;2.20;;;;;;;20.27;50.08;97421.59;4994852;28;20203;-27
2023/12/29 11:14:24;;;;;;;3.87;2.30;;;;;;;20.24;50.28;97412.16;4990212;28;20744;-26
2023/12/29 11:16:51;;;;;;;2.53;2.33;;;;;;;20.26;50.05;97408.00;4974928;28;20203;-26
2023/12/29 11:19:17;;;;;;;2.67;2.47;;;;;;;20.24;50.47;97412.16;4991382;28;20238;-26
2023/12/29 11:21:44;;;;;;;2.27;2.10;;;;;;;20.25;49.97;97411.34;4987862;28;20670;-26
2023/12/29 11:24:11;;;;;;;2.53;2.33;;;;;;;20.25;50.27;97402.84;4971513;28;20219;-26
2023/12/29 11:26:39;;;;;;;2.73;2.53;;;;;;;20.24;49.98;97390.88;4994674;28;20210;-28
2023/12/29 11:29:07;;;;;;;2.40;2.20;;;;;;;20.26;50.17;97396.91;4977747;28;20203;-27
2023/12/29 11:31:34;;;;;;;2.67;2.40;;;;;;;20.26;50.21;97389.25;4977483;28;20661;-27
2023/12/29 11:34:06;;;;;;;2.17;1.97;;;;;;;20.26;50.18;97392.69;4984542;28;20569;-27